createdAt,value
2022-09-15T00:01:02.049Z,19.15
2022-09-15T00:04:05.790Z,19.07
2022-09-15T00:07:08.473Z,18.95
2022-09-15T00:10:11.825Z,18.95
2022-09-15T00:13:15.724Z,18.91
2022-09-15T00:16:20.521Z,18.79
2022-09-15T00:19:23.522Z,18.75
2022-09-15T00:22:28.278Z,18.82
2022-09-15T00:25:31.152Z,18.84
2022-09-15T00:28:34.837Z,18.71
2022-09-15T00:31:37.623Z,18.64
2022-09-15T00:34:40.568Z,18.71
2022-09-15T00:37:43.347Z,18.72
2022-09-15T00:40:53.302Z,18.78
2022-09-15T00:43:57.486Z,18.80
2022-09-15T00:47:18.767Z,18.84
2022-09-15T00:50:23.147Z,18.91
2022-09-15T00:53:27.503Z,19.07
2022-09-15T00:56:33.281Z,19.05
2022-09-15T00:59:40.156Z,19.34
2022-09-15T01:02:44.767Z,19.53
2022-09-15T01:05:54.610Z,19.60
2022-09-15T01:09:14.353Z,19.59
2022-09-15T01:12:18.520Z,19.50
2022-09-15T01:15:25.855Z,19.44
2022-09-15T01:18:36.952Z,19.39
2022-09-15T01:21:58.777Z,19.46
2022-09-15T01:25:10.648Z,19.47
2022-09-15T01:28:36.031Z,19.56
2022-09-15T01:32:13.390Z,19.57
2022-09-15T01:35:22.415Z,19.67
2022-09-15T01:39:07.147Z,19.55
2022-09-15T01:42:15.191Z,19.58
2022-09-15T01:45:23.781Z,19.58
2022-09-15T01:48:29.796Z,19.59
2022-09-15T01:51:34.605Z,19.49
2022-09-15T01:54:45.881Z,19.43
2022-09-15T01:57:50.549Z,19.38
2022-09-15T02:01:03.796Z,19.54
2022-09-15T02:04:15.801Z,19.67
2022-09-15T02:07:35.618Z,19.74
2022-09-15T02:10:38.404Z,19.66
2022-09-15T02:14:11.442Z,19.58
2022-09-15T02:17:18.885Z,19.50
2022-09-15T02:20:34.317Z,19.40
2022-09-15T02:23:43.729Z,19.32
2022-09-15T02:26:49.727Z,19.25
2022-09-15T02:29:59.048Z,19.19
2022-09-15T02:33:09.064Z,19.15
2022-09-15T02:36:17.183Z,19.12
2022-09-15T02:39:26.182Z,19.22
2022-09-15T02:42:33.019Z,19.38
2022-09-15T02:45:36.237Z,19.58
2022-09-15T02:48:39.493Z,19.71
2022-09-15T02:51:42.491Z,19.84
2022-09-15T02:54:46.022Z,19.86
2022-09-15T02:57:48.832Z,19.82
2022-09-15T03:00:54.223Z,19.80
2022-09-15T03:03:57.352Z,19.76
2022-09-15T03:07:00.511Z,19.72
2022-09-15T03:10:05.473Z,19.72
2022-09-15T03:13:08.687Z,19.72
2022-09-15T03:16:14.553Z,19.68
2022-09-15T03:19:17.552Z,19.71
2022-09-15T03:22:20.426Z,19.72
2022-09-15T03:25:26.779Z,19.71
2022-09-15T03:28:30.193Z,19.69
2022-09-15T03:31:33.280Z,19.72
2022-09-15T03:34:36.245Z,19.78
2022-09-15T03:37:39.479Z,19.73
2022-09-15T03:40:43.308Z,19.78
2022-09-15T03:43:46.484Z,19.75
2022-09-15T03:46:49.504Z,19.69
2022-09-15T03:49:53.177Z,19.64
2022-09-15T03:52:58.803Z,19.58
2022-09-15T03:56:15.347Z,19.46
2022-09-15T03:59:19.311Z,19.35
2022-09-15T04:02:22.345Z,19.28
2022-09-15T04:05:25.874Z,19.25
2022-09-15T04:08:28.621Z,19.21
2022-09-15T04:11:32.633Z,19.22
2022-09-15T04:14:35.518Z,19.20
2022-09-15T04:17:38.419Z,19.26
2022-09-15T04:20:41.645Z,19.29
2022-09-15T04:23:45.911Z,19.31
2022-09-15T04:26:49.017Z,19.25
2022-09-15T04:29:52.932Z,19.21
2022-09-15T04:32:55.820Z,19.22
2022-09-15T04:36:04.249Z,19.29
2022-09-15T04:39:07.010Z,19.27
2022-09-15T04:42:10.212Z,19.43
2022-09-15T04:45:13.140Z,19.76
2022-09-15T04:48:16.167Z,19.95
2022-09-15T04:51:21.668Z,19.95
2022-09-15T04:54:24.638Z,20.04
2022-09-15T04:57:27.271Z,20.09
2022-09-15T05:00:32.135Z,20.14
2022-09-15T05:03:37.162Z,20.17
2022-09-15T05:06:40.201Z,20.27
2022-09-15T05:09:43.066Z,20.31
2022-09-15T05:12:46.526Z,20.30
2022-09-15T05:15:49.534Z,20.27
2022-09-15T05:18:55.155Z,20.25
2022-09-15T05:21:58.008Z,20.22
2022-09-15T05:25:01.150Z,20.16
2022-09-15T05:28:03.981Z,20.28
2022-09-15T05:31:13.119Z,20.26
2022-09-15T05:34:16.093Z,20.23
2022-09-15T05:37:19.890Z,20.18
2022-09-15T05:40:22.978Z,20.16
2022-09-15T05:43:25.906Z,20.14
2022-09-15T05:46:31.949Z,20.14
2022-09-15T05:49:35.345Z,20.14
2022-09-15T05:52:38.209Z,20.16
2022-09-15T05:55:41.548Z,20.23
2022-09-15T05:58:46.954Z,20.32
2022-09-15T06:01:49.918Z,20.43
2022-09-15T06:04:52.999Z,20.48
2022-09-15T06:07:56.907Z,20.55
2022-09-15T06:11:08.338Z,20.59
2022-09-15T06:14:13.398Z,20.66
2022-09-15T06:17:20.677Z,20.74
2022-09-15T06:20:25.482Z,20.75
2022-09-15T06:23:28.636Z,20.76
2022-09-15T06:26:31.539Z,20.86
2022-09-15T06:29:35.930Z,20.94
2022-09-15T06:32:39.113Z,21.09
2022-09-15T06:35:42.403Z,21.26
2022-09-15T06:38:45.826Z,21.37
2022-09-15T06:42:05.911Z,21.62
2022-09-15T06:45:09.388Z,21.72
2022-09-15T06:48:23.918Z,21.68
2022-09-15T06:51:35.376Z,21.47
2022-09-15T06:54:38.700Z,21.40
2022-09-15T06:57:41.333Z,21.62
2022-09-15T07:00:44.610Z,21.41
2022-09-15T07:03:47.487Z,21.18
2022-09-15T07:06:51.017Z,21.12
2022-09-15T07:09:53.762Z,21.12
2022-09-15T07:12:56.858Z,21.27
2022-09-15T07:16:02.819Z,21.47
2022-09-15T07:19:06.245Z,21.68
2022-09-15T07:22:08.839Z,21.79
2022-09-15T07:25:12.049Z,22.18
2022-09-15T07:28:15.815Z,22.10
2022-09-15T07:31:21.054Z,22.71
2022-09-15T07:34:23.774Z,23.74
2022-09-15T07:37:26.701Z,24.02
2022-09-15T07:40:29.751Z,24.95
2022-09-15T07:43:33.035Z,26.13
2022-09-15T07:46:36.426Z,26.35
2022-09-15T07:49:39.793Z,26.21
2022-09-15T07:52:42.635Z,25.60
2022-09-15T07:55:45.559Z,25.12
2022-09-15T07:58:49.239Z,24.27
2022-09-15T08:01:52.445Z,25.16
2022-09-15T08:04:56.526Z,25.75
2022-09-15T08:07:59.378Z,25.29
2022-09-15T08:11:06.957Z,25.15
2022-09-15T08:14:09.821Z,25.43
2022-09-15T08:17:12.741Z,25.37
2022-09-15T08:20:15.645Z,24.43
2022-09-15T08:23:18.778Z,24.05
2022-09-15T08:26:21.807Z,24.08
2022-09-15T08:29:24.836Z,23.89
2022-09-15T08:32:27.564Z,24.35
2022-09-15T08:35:32.430Z,25.28
2022-09-15T08:38:35.346Z,25.87
2022-09-15T08:41:43.716Z,26.50
2022-09-15T08:44:55.608Z,27.98
2022-09-15T08:48:04.394Z,28.03
2022-09-15T08:51:15.000Z,28.06
2022-09-15T08:54:24.641Z,27.70
2022-09-15T08:57:27.794Z,26.31
2022-09-15T09:00:32.661Z,25.92
2022-09-15T09:04:07.118Z,25.34
2022-09-15T09:07:35.035Z,25.39
2022-09-15T09:11:02.944Z,25.51
2022-09-15T09:14:24.640Z,25.36
2022-09-15T09:17:27.316Z,25.22
2022-09-15T09:20:45.889Z,25.31
2022-09-15T09:24:16.931Z,25.27
2022-09-15T09:27:24.881Z,25.04
2022-09-15T09:30:32.810Z,25.17
2022-09-15T09:33:48.062Z,25.12
2022-09-15T09:37:09.125Z,25.44
2022-09-15T09:40:14.721Z,25.63
2022-09-15T09:43:17.954Z,26.23
2022-09-15T09:46:23.295Z,26.51
2022-09-15T09:49:34.290Z,26.41
2022-09-15T09:52:39.447Z,26.26
2022-09-15T09:55:42.338Z,26.38
2022-09-15T09:58:46.111Z,26.32
2022-09-15T10:02:10.899Z,26.15
2022-09-15T10:05:19.593Z,26.46
2022-09-15T10:08:22.270Z,26.26
2022-09-15T10:11:46.715Z,25.98
2022-09-15T10:14:53.316Z,26.05
2022-09-15T10:17:57.073Z,26.15
2022-09-15T10:21:02.558Z,26.19
2022-09-15T10:24:34.676Z,26.43
2022-09-15T10:27:37.436Z,27.12
2022-09-15T10:31:01.910Z,26.91
2022-09-15T10:34:30.423Z,27.00
2022-09-15T10:37:48.628Z,26.74
2022-09-15T10:41:31.780Z,27.01
2022-09-15T10:44:52.871Z,26.80
2022-09-15T10:48:16.837Z,26.59
2022-09-15T10:51:57.872Z,26.75
2022-09-15T10:55:36.757Z,27.14
2022-09-15T10:59:03.800Z,27.25
2022-09-15T11:02:32.696Z,27.28
2022-09-15T11:06:13.482Z,27.25
2022-09-15T11:09:25.993Z,27.43
2022-09-15T11:12:40.332Z,27.20
2022-09-15T11:15:56.753Z,26.82
2022-09-15T11:19:18.036Z,26.79
2022-09-15T11:22:30.097Z,26.33
2022-09-15T11:25:40.570Z,25.99
2022-09-15T11:28:50.315Z,25.94
2022-09-15T11:35:45.065Z,25.65
2022-09-15T11:39:17.890Z,25.56
2022-09-15T11:42:32.169Z,25.37
2022-09-15T11:45:41.641Z,25.33
2022-09-15T11:49:16.908Z,25.29
2022-09-15T11:53:00.338Z,25.33
2022-09-15T11:56:24.392Z,25.39
2022-09-15T11:59:46.911Z,25.54
2022-09-15T12:03:22.338Z,25.91
2022-09-15T12:06:35.083Z,26.50
2022-09-15T12:09:38.705Z,26.42
2022-09-15T12:12:44.773Z,26.41
2022-09-15T12:15:49.703Z,25.81
2022-09-15T12:19:19.040Z,25.52
2022-09-15T12:22:43.480Z,25.09
2022-09-15T12:26:05.031Z,24.73
2022-09-15T12:29:26.200Z,24.61
2022-09-15T12:32:34.994Z,24.54
2022-09-15T12:35:38.228Z,24.22
2022-09-15T12:38:48.200Z,23.78
2022-09-15T12:41:52.905Z,23.25
2022-09-15T12:45:02.045Z,22.72
2022-09-15T12:48:18.760Z,21.95
2022-09-15T12:51:26.234Z,21.76
2022-09-15T12:54:33.163Z,21.39
2022-09-15T12:57:37.925Z,21.47
2022-09-15T13:01:00.603Z,21.33
2022-09-15T13:04:06.226Z,21.08
2022-09-15T13:07:15.448Z,20.75
2022-09-15T13:10:27.797Z,20.34
2022-09-15T13:13:45.427Z,19.87
2022-09-15T13:16:54.165Z,19.58
2022-09-15T13:20:02.026Z,19.24
2022-09-15T13:23:09.156Z,18.92
2022-09-15T13:26:17.824Z,18.87
2022-09-15T13:29:23.037Z,18.86
2022-09-15T13:32:44.427Z,18.66
2022-09-15T13:36:08.487Z,18.25
2022-09-15T13:39:45.549Z,17.89
2022-09-15T13:43:10.957Z,17.81
2022-09-15T13:46:37.691Z,17.62
2022-09-15T13:50:25.237Z,17.49
2022-09-15T13:53:35.096Z,17.50
2022-09-15T13:56:39.958Z,17.77
2022-09-15T13:59:42.524Z,17.69
2022-09-15T14:05:56.706Z,17.71
2022-09-15T14:09:06.223Z,17.64
2022-09-15T14:12:12.125Z,17.56
2022-09-15T14:15:21.020Z,17.47
2022-09-15T14:18:23.829Z,17.44
2022-09-15T14:21:32.202Z,17.63
2022-09-15T14:24:40.220Z,17.69
2022-09-15T14:27:45.618Z,17.66
2022-09-15T14:30:48.788Z,17.60
2022-09-15T14:33:51.434Z,17.58
2022-09-15T14:37:00.715Z,17.54
2022-09-15T14:40:19.372Z,17.42
2022-09-15T14:43:25.889Z,17.31
2022-09-15T14:46:36.731Z,17.32
2022-09-15T14:49:39.504Z,17.42
2022-09-15T14:53:19.205Z,17.47
2022-09-15T14:56:30.454Z,17.53
2022-09-15T14:59:40.494Z,17.59
2022-09-15T15:03:06.783Z,17.57
2022-09-15T15:06:29.354Z,17.62
2022-09-15T15:09:39.346Z,17.64
2022-09-15T15:12:50.371Z,17.67
2022-09-15T15:15:53.627Z,17.69
2022-09-15T15:18:57.225Z,17.73
2022-09-15T15:22:12.000Z,17.73
2022-09-15T15:25:20.316Z,17.76
2022-09-15T15:28:37.041Z,17.75
2022-09-15T15:31:40.370Z,17.74
2022-09-15T15:35:16.031Z,17.74
2022-09-15T15:38:25.272Z,17.74
2022-09-15T15:41:31.156Z,17.80
2022-09-15T15:44:33.624Z,17.78
2022-09-15T15:47:37.140Z,17.73
2022-09-15T15:50:40.000Z,17.75
2022-09-15T15:53:42.771Z,17.81
2022-09-15T15:56:45.493Z,17.86
2022-09-15T15:59:48.295Z,17.95
2022-09-15T16:02:51.694Z,18.12
2022-09-15T16:05:58.437Z,18.27
2022-09-15T16:09:02.164Z,18.23
2022-09-15T16:12:05.188Z,18.21
2022-09-15T16:15:16.984Z,18.25
2022-09-15T16:18:20.020Z,18.18
2022-09-15T16:21:29.831Z,18.11
2022-09-15T16:24:33.045Z,18.08
2022-09-15T16:27:35.414Z,18.06
2022-09-15T16:30:38.345Z,18.02
2022-09-15T16:33:42.644Z,18.04
2022-09-15T16:36:45.786Z,18.00
2022-09-15T16:39:48.275Z,17.94
2022-09-15T16:42:51.428Z,17.91
2022-09-15T16:45:53.958Z,17.87
2022-09-15T16:48:57.261Z,17.82
2022-09-15T16:51:59.727Z,17.74
2022-09-15T16:55:02.483Z,17.66
2022-09-15T16:58:06.189Z,17.56
2022-09-15T17:01:20.675Z,17.52
2022-09-15T17:04:23.068Z,17.43
2022-09-15T17:07:25.867Z,17.33
2022-09-15T17:10:28.441Z,17.30
2022-09-15T17:13:33.799Z,17.29
2022-09-15T17:16:38.279Z,17.34
2022-09-15T17:19:41.208Z,17.28
2022-09-15T17:22:43.661Z,17.21
2022-09-15T17:25:52.723Z,17.16
2022-09-15T17:28:56.340Z,17.13
2022-09-15T17:31:59.061Z,17.12
2022-09-15T17:35:01.894Z,17.08
2022-09-15T17:38:06.092Z,17.02
2022-09-15T17:41:15.371Z,16.98
2022-09-15T17:44:18.207Z,16.95
2022-09-15T17:47:20.615Z,16.92
2022-09-15T17:50:25.931Z,16.89
2022-09-15T17:53:28.739Z,16.94
2022-09-15T17:56:31.529Z,16.91
2022-09-15T17:59:34.031Z,16.90
2022-09-15T18:02:38.928Z,16.88
2022-09-15T18:05:41.562Z,16.89
2022-09-15T18:08:44.094Z,16.88
2022-09-15T18:11:47.079Z,17.01
2022-09-15T18:14:49.626Z,16.98
2022-09-15T18:17:56.424Z,16.93
2022-09-15T18:20:59.892Z,16.98
2022-09-15T18:24:02.748Z,16.98
2022-09-15T18:27:05.309Z,16.93
2022-09-15T18:30:08.821Z,16.94
2022-09-15T18:33:15.405Z,16.89
2022-09-15T18:36:18.110Z,16.82
2022-09-15T18:39:20.709Z,16.79
2022-09-15T18:42:26.227Z,16.75
2022-09-15T18:45:31.369Z,16.74
2022-09-15T18:48:34.092Z,16.75
2022-09-15T18:51:51.114Z,16.73
2022-09-15T18:54:54.713Z,16.72
2022-09-15T18:58:00.825Z,16.72
2022-09-15T19:01:04.835Z,16.76
2022-09-15T19:04:07.268Z,16.77
2022-09-15T19:07:11.453Z,16.70
2022-09-15T19:10:14.601Z,16.67
2022-09-15T19:13:17.389Z,16.67
2022-09-15T19:16:22.714Z,16.68
2022-09-15T19:19:25.837Z,16.70
2022-09-15T19:22:28.936Z,16.70
2022-09-15T19:25:32.492Z,16.70
2022-09-15T19:28:35.077Z,16.76
2022-09-15T19:31:41.851Z,16.78
2022-09-15T19:34:47.044Z,16.76
2022-09-15T19:37:49.754Z,16.78
2022-09-15T19:40:52.644Z,16.80
2022-09-15T19:43:55.388Z,16.75
2022-09-15T19:46:58.434Z,16.75
2022-09-15T19:50:01.681Z,16.69
2022-09-15T19:53:04.134Z,16.66
2022-09-15T19:56:07.629Z,16.66
2022-09-15T19:59:10.267Z,16.59
2022-09-15T20:02:13.422Z,16.57
2022-09-15T20:05:16.297Z,16.64
2022-09-15T20:08:19.309Z,16.68
2022-09-15T20:11:22.322Z,16.60
2022-09-15T20:14:24.788Z,16.58
2022-09-15T20:17:27.906Z,16.55
2022-09-15T20:20:32.302Z,16.54
2022-09-15T20:23:36.184Z,16.60
2022-09-15T20:26:38.693Z,16.67
2022-09-15T20:29:41.612Z,16.56
2022-09-15T20:32:44.044Z,16.49
2022-09-15T20:35:46.875Z,16.60
2022-09-15T20:38:50.419Z,16.62
2022-09-15T20:41:53.210Z,16.54
2022-09-15T20:44:55.681Z,16.44
2022-09-15T20:47:58.596Z,16.40
2022-09-15T20:51:15.699Z,16.40
2022-09-15T20:54:18.364Z,16.36
2022-09-15T20:57:20.901Z,16.34
2022-09-15T21:00:26.596Z,16.37
2022-09-15T21:03:30.378Z,16.41
2022-09-15T21:06:34.011Z,16.46
2022-09-15T21:09:36.505Z,16.46
2022-09-15T21:12:39.270Z,16.47
2022-09-15T21:15:41.784Z,16.58
2022-09-15T21:18:45.573Z,16.64
2022-09-15T21:21:48.244Z,16.74
2022-09-15T21:24:51.044Z,16.77
2022-09-15T21:27:53.612Z,16.82
2022-09-15T21:31:04.659Z,16.90
2022-09-15T21:34:08.032Z,16.99
2022-09-15T21:37:10.994Z,16.98
2022-09-15T21:40:13.630Z,16.99
2022-09-15T21:43:19.027Z,17.00
2022-09-15T21:46:23.653Z,17.00
2022-09-15T21:49:26.626Z,16.99
2022-09-15T21:52:30.973Z,17.11
2022-09-15T21:55:36.441Z,17.20
2022-09-15T21:58:43.040Z,17.17
2022-09-15T22:01:46.108Z,17.12
2022-09-15T22:04:49.041Z,17.19
2022-09-15T22:07:51.576Z,17.21
2022-09-15T22:10:59.762Z,17.28
2022-09-15T22:14:04.189Z,17.30
2022-09-15T22:17:09.823Z,17.34
2022-09-15T22:20:13.733Z,17.22
2022-09-15T22:23:17.639Z,17.22
2022-09-15T22:26:28.402Z,17.17
2022-09-15T22:29:31.834Z,17.06
2022-09-15T22:32:34.411Z,16.98
2022-09-15T22:35:37.239Z,16.87
2022-09-15T22:38:39.862Z,16.84
2022-09-15T22:41:42.691Z,16.77
2022-09-15T22:44:45.379Z,16.73
2022-09-15T22:47:48.275Z,16.79
2022-09-15T22:50:51.027Z,16.85
2022-09-15T22:53:56.651Z,16.85
2022-09-15T22:56:59.369Z,16.82
2022-09-15T23:00:02.434Z,16.90
2022-09-15T23:03:09.622Z,16.94
2022-09-15T23:06:12.474Z,16.94
2022-09-15T23:09:15.231Z,16.87
2022-09-15T23:12:18.064Z,16.93
2022-09-15T23:15:20.710Z,16.79
2022-09-15T23:18:23.606Z,16.81
2022-09-15T23:21:26.688Z,16.85
2022-09-15T23:24:32.066Z,16.78
2022-09-15T23:27:34.608Z,16.75
2022-09-15T23:30:38.692Z,16.81
2022-09-15T23:33:42.192Z,16.78
2022-09-15T23:36:44.951Z,16.79
2022-09-15T23:39:47.792Z,16.75
2022-09-15T23:42:50.585Z,16.69
2022-09-15T23:45:53.669Z,16.81
2022-09-15T23:48:56.535Z,16.70
2022-09-15T23:51:59.175Z,16.72
2022-09-15T23:55:02.389Z,16.73
2022-09-15T23:58:05.759Z,16.71
